Time;durP1;ratioP1;P1;durP2;ratioP2;P2;SDS_P1;SDS_P2;PMS_P1;PMS_P2;Temp;Humidity;BMP_temperature;BMP_pressure;BME280_temperature;BME280_humidity;BME280_pressure;Samples;Min_cycle;Max_cycle;Signal;HPM_P1;HPM_P2
2021/03/18 00:02:04;;;;;;;2.67;0.40;;;0.00;99.90;;;;;;5026171;28;20046;-78
2021/03/18 00:04:29;;;;;;;3.78;0.40;;;-0.10;99.90;;;;;;5027267;28;20086;-78
2021/03/18 00:06:55;;;;;;;2.20;0.38;;;-0.10;99.90;;;;;;5026713;28;20045;-79
2021/03/18 00:09:21;;;;;;;2.15;0.40;;;-0.10;99.90;;;;;;5025637;28;20029;-78
2021/03/18 00:11:49;;;;;;;1.17;0.30;;;0.00;99.90;;;;;;5025721;28;20037;-78
2021/03/18 00:14:17;;;;;;;2.05;0.30;;;0.00;99.90;;;;;;5025541;28;20033;-79
2021/03/18 00:16:44;;;;;;;3.50;0.50;;;0.00;99.90;;;;;;5026539;28;20101;-79
2021/03/18 00:19:10;;;;;;;2.35;0.40;;;0.00;99.90;;;;;;5009273;28;20034;-79
2021/03/18 00:21:35;;;;;;;3.30;0.40;;;0.00;99.90;;;;;;5026659;28;20037;-78
2021/03/18 00:24:01;;;;;;;1.30;0.40;;;0.00;99.90;;;;;;5009122;28;20056;-79
2021/03/18 00:26:29;;;;;;;3.65;0.40;;;-0.10;99.90;;;;;;5009004;28;20029;-79
2021/03/18 00:28:56;;;;;;;3.53;0.40;;;-0.20;99.90;;;;;;5026920;28;20052;-78
2021/03/18 00:31:23;;;;;;;2.00;0.40;;;-0.20;99.90;;;;;;4992779;28;20121;-78
2021/03/18 00:33:50;;;;;;;2.20;0.60;;;-0.40;99.90;;;;;;5009482;28;20026;-78
2021/03/18 00:36:16;;;;;;;1.98;0.35;;;-0.40;99.90;;;;;;5026346;28;20037;-79
2021/03/18 00:38:41;;;;;;;2.65;0.40;;;-0.30;99.90;;;;;;5026723;28;20034;-79
2021/03/18 00:41:09;;;;;;;1.73;0.32;;;-0.30;99.90;;;;;;5008543;28;20441;-78
2021/03/18 00:43:36;;;;;;;4.35;0.38;;;-0.30;99.90;;;;;;5026280;28;20030;-78
2021/03/18 00:46:03;;;;;;;3.65;0.43;;;-0.50;99.90;;;;;;4992560;28;20026;-79
2021/03/18 00:48:31;;;;;;;2.28;0.32;;;-0.40;99.90;;;;;;5009044;28;20038;-79
2021/03/18 00:51:01;;;;;;;2.22;0.38;;;-0.40;99.90;;;;;;5007625;28;20022;-79
2021/03/18 00:53:41;;;;;;;3.47;0.35;;;-0.40;99.90;;;;;;5026418;28;20036;-79
2021/03/18 00:56:13;;;;;;;3.38;0.40;;;-0.50;99.90;;;;;;5025903;28;20037;-79
2021/03/18 00:58:43;;;;;;;1.63;0.30;;;-0.50;99.90;;;;;;5025126;28;20052;-79
2021/03/18 01:01:13;;;;;;;1.63;0.40;;;-0.50;99.90;;;;;;5025079;28;20022;-79
2021/03/18 01:03:41;;;;;;;3.22;0.40;;;-0.50;99.90;;;;;;5008627;28;20045;-79
2021/03/18 01:06:13;;;;;;;3.55;0.40;;;-0.80;99.90;;;;;;5008129;28;20061;-79
2021/03/18 01:08:39;;;;;;;2.10;0.30;;;-0.70;99.90;;;;;;5024956;28;20045;-79
2021/03/18 01:11:23;;;;;;;2.42;0.40;;;-0.80;99.90;;;;;;5008497;28;20034;-79
2021/03/18 01:13:52;;;;;;;2.90;0.32;;;-0.60;99.90;;;;;;5008707;28;20033;-79
2021/03/18 01:16:21;;;;;;;1.30;0.30;;;-0.60;99.90;;;;;;5008194;28;20030;-79
2021/03/18 01:19:09;;;;;;;2.60;0.40;;;-0.70;99.90;;;;;;4992340;28;20072;-79
2021/03/18 01:21:42;;;;;;;2.45;0.40;;;-0.80;99.90;;;;;;4991365;28;20058;-79
2021/03/18 01:24:09;;;;;;;3.58;0.40;;;-0.80;99.90;;;;;;5008321;28;20030;-79
2021/03/18 01:26:35;;;;;;;3.25;0.40;;;-0.80;99.90;;;;;;5025656;28;20073;-79
2021/03/18 01:29:02;;;;;;;1.52;0.40;;;-0.70;99.90;;;;;;5008456;28;20053;-79
2021/03/18 01:31:27;;;;;;;2.42;0.40;;;-0.80;99.90;;;;;;5008172;28;20056;-78
2021/03/18 01:33:53;;;;;;;1.15;0.30;;;-0.80;99.90;;;;;;4992109;28;20101;-79
2021/03/18 01:36:19;;;;;;;3.67;0.40;;;-0.80;99.90;;;;;;5007941;28;20478;-79
2021/03/18 01:38:45;;;;;;;2.35;0.40;;;-0.80;99.90;;;;;;5024736;28;20034;-79
2021/03/18 01:41:13;;;;;;;2.65;0.40;;;-0.80;99.90;;;;;;5008095;28;20034;-79
2021/03/18 01:43:40;;;;;;;1.50;0.20;;;-0.90;99.90;;;;;;5025859;28;20025;-79
2021/03/18 01:46:05;;;;;;;2.40;0.40;;;-0.90;99.90;;;;;;5007942;28;20056;-79
2021/03/18 01:48:32;;;;;;;2.63;0.30;;;-0.90;99.90;;;;;;4992277;28;20101;-79
2021/03/18 01:50:58;;;;;;;1.65;0.38;;;-0.90;99.90;;;;;;5008351;28;20026;-79
2021/03/18 01:53:25;;;;;;;2.67;0.40;;;-0.90;99.90;;;;;;5008709;28;20387;-79
2021/03/18 01:55:53;;;;;;;2.53;0.32;;;-1.00;99.90;;;;;;5025113;28;20030;-79
2021/03/18 01:58:20;;;;;;;2.47;0.30;;;-0.90;99.90;;;;;;5024512;28;20037;-79
2021/03/18 02:00:49;;;;;;;3.67;0.30;;;-0.80;99.90;;;;;;5024392;28;20397;-79
2021/03/18 02:03:15;;;;;;;1.75;0.30;;;-0.80;99.90;;;;;;5026636;28;20037;-79
2021/03/18 02:06:01;;;;;;;3.05;0.32;;;-0.90;99.90;;;;;;5029076;28;20030;-79
2021/03/18 02:08:27;;;;;;;4.28;0.30;;;-1.00;99.90;;;;;;4933188;29;20059;-79
2021/03/18 02:10:52;;;;;;;1.45;0.30;;;-1.00;99.90;;;;;;4933333;29;20039;-79
2021/03/18 02:13:19;;;;;;;5.32;0.30;;;-0.90;99.90;;;;;;4949199;29;20043;-79
2021/03/18 02:15:46;;;;;;;3.90;0.25;;;-0.90;99.90;;;;;;4949631;29;20090;-79
2021/03/18 02:18:50;;;;;;;2.17;0.30;;;-1.00;99.90;;;;;;4933979;29;20028;-79
2021/03/18 02:21:46;;;;;;;4.15;0.30;;;-0.90;99.90;;;;;;4950312;29;20042;-79
2021/03/18 02:24:20;;;;;;;1.08;0.20;;;-0.70;99.90;;;;;;4933322;29;20047;-79
2021/03/18 02:27:21;;;;;;;2.28;0.30;;;-0.70;99.90;;;;;;4932748;29;20102;-79
2021/03/18 02:30:24;;;;;;;3.05;0.30;;;-0.60;99.90;;;;;;4949079;29;20031;-79
2021/03/18 02:33:23;;;;;;;4.53;0.30;;;-0.70;99.90;;;;;;4932886;29;20484;-79
2021/03/18 02:35:52;;;;;;;0.88;0.20;;;-0.70;99.90;;;;;;4932659;29;20289;-79
2021/03/18 02:38:43;;;;;;;2.45;0.30;;;-0.60;99.90;;;;;;4948812;29;20055;-79
2021/03/18 02:41:32;;;;;;;6.22;0.30;;;-0.70;99.90;;;;;;4916608;29;20071;-79
2021/03/18 02:44:07;;;;;;;2.55;0.28;;;-0.70;99.90;;;;;;4948671;29;20039;-79
2021/03/18 02:46:34;;;;;;;1.80;0.28;;;-0.60;99.90;;;;;;5005306;28;20085;-79
2021/03/18 02:49:03;;;;;;;3.55;0.30;;;-0.80;99.90;;;;;;5011184;28;20041;-79
2021/03/18 02:51:32;;;;;;;1.73;0.20;;;-0.80;99.90;;;;;;5028463;28;20453;-79
2021/03/18 02:54:07;;;;;;;2.40;0.30;;;-0.70;99.90;;;;;;5011055;28;20030;-79
2021/03/18 02:56:35;;;;;;;3.53;0.82;;;-0.80;99.90;;;;;;5010824;28;20204;-79
2021/03/18 02:59:02;;;;;;;1.50;0.20;;;-0.80;99.90;;;;;;5010801;28;20052;-79
2021/03/18 03:01:29;;;;;;;4.22;0.38;;;-0.80;99.90;;;;;;5028491;28;20425;-79
2021/03/18 03:03:55;;;;;;;1.08;0.20;;;-0.80;99.90;;;;;;5010781;28;20105;-79
2021/03/18 03:06:22;;;;;;;5.10;0.40;;;-0.80;99.90;;;;;;5026974;28;20033;-79
2021/03/18 03:08:48;;;;;;;2.15;0.30;;;-0.60;99.90;;;;;;5028385;28;20094;-79
2021/03/18 03:11:18;;;;;;;3.47;0.30;;;-0.60;99.90;;;;;;5010734;28;20153;-79
2021/03/18 03:13:46;;;;;;;4.10;0.20;;;-0.80;99.90;;;;;;5026148;28;20065;-79
2021/03/18 03:16:15;;;;;;;3.47;0.30;;;-0.80;99.90;;;;;;5020510;28;20049;-79
2021/03/18 03:18:41;;;;;;;2.33;0.30;;;-0.80;99.90;;;;;;4991150;28;20085;-79
2021/03/18 03:21:08;;;;;;;2.65;0.30;;;-0.80;99.90;;;;;;4991070;28;20034;-79
2021/03/18 03:23:34;;;;;;;2.70;0.30;;;-0.70;99.90;;;;;;5023626;28;20035;-79
2021/03/18 03:26:03;;;;;;;1.85;0.30;;;-0.80;99.90;;;;;;4991070;28;20080;-79
2021/03/18 03:28:30;;;;;;;6.07;0.30;;;-0.90;99.90;;;;;;4990833;28;20053;-79
2021/03/18 03:30:57;;;;;;;3.42;0.30;;;-0.90;99.90;;;;;;4990817;28;20026;-79
2021/03/18 03:33:23;;;;;;;6.32;0.38;;;-1.00;99.90;;;;;;5007068;28;20035;-79
2021/03/18 03:35:49;;;;;;;1.15;0.20;;;-0.90;99.90;;;;;;5006754;28;20034;-79
2021/03/18 03:38:15;;;;;;;2.85;0.30;;;-0.90;99.90;;;;;;4990930;28;20118;-78
2021/03/18 03:40:41;;;;;;;3.88;0.30;;;-1.00;99.90;;;;;;4990750;28;20042;-79
2021/03/18 03:43:07;;;;;;;4.75;0.30;;;-0.90;99.90;;;;;;5022936;28;20030;-79
2021/03/18 03:45:33;;;;;;;3.10;0.35;;;-1.10;99.90;;;;;;4974334;28;20050;-79
2021/03/18 03:47:59;;;;;;;1.65;0.30;;;-1.20;99.90;;;;;;4990280;28;20042;-79
2021/03/18 03:50:26;;;;;;;3.65;0.40;;;-1.00;99.90;;;;;;5026159;28;20026;-79
2021/03/18 03:53:13;;;;;;;2.22;0.22;;;-1.00;99.90;;;;;;5026317;28;20068;-79
2021/03/18 03:55:58;;;;;;;6.05;0.40;;;-1.00;99.90;;;;;;5026045;28;20109;-79
2021/03/18 03:58:37;;;;;;;3.72;0.30;;;-1.10;99.90;;;;;;5009764;28;20048;-79
2021/03/18 04:01:05;;;;;;;3.38;0.30;;;-1.10;99.90;;;;;;5027732;28;20026;-78
2021/03/18 04:03:34;;;;;;;4.03;0.38;;;-1.10;99.90;;;;;;5026499;28;20090;-78
2021/03/18 04:06:00;;;;;;;3.08;0.30;;;-1.10;99.90;;;;;;5027478;28;20099;-78
2021/03/18 04:08:29;;;;;;;2.08;0.30;;;-1.20;99.90;;;;;;5025788;28;20117;-79
2021/03/18 04:10:59;;;;;;;5.18;0.40;;;-1.20;99.90;;;;;;5025999;28;20125;-79
2021/03/18 04:13:27;;;;;;;3.40;0.30;;;-1.20;99.90;;;;;;5009519;28;20037;-79
2021/03/18 04:15:56;;;;;;;6.25;0.40;;;-1.30;99.90;;;;;;5009178;28;20030;-79
2021/03/18 04:18:27;;;;;;;1.95;0.50;;;-1.30;99.90;;;;;;5009579;28;20033;-79
2021/03/18 04:20:54;;;;;;;3.85;0.38;;;-1.30;99.90;;;;;;4993258;28;20041;-79
2021/03/18 04:23:22;;;;;;;3.35;0.35;;;-1.10;99.90;;;;;;5009137;28;20057;-79
2021/03/18 04:25:48;;;;;;;3.38;0.30;;;-0.90;99.90;;;;;;5009063;28;20433;-79
2021/03/18 04:28:15;;;;;;;2.45;0.40;;;-1.00;99.90;;;;;;5009071;28;20045;-80
2021/03/18 04:30:41;;;;;;;4.60;0.40;;;-1.10;99.90;;;;;;5025312;28;20049;-79
2021/03/18 04:33:26;;;;;;;3.00;0.35;;;-1.10;99.90;;;;;;5123429;27;20363;-80
2021/03/18 04:35:52;;;;;;;2.75;0.30;;;-1.10;99.90;;;;;;5122127;28;20035;-80
2021/03/18 04:38:18;;;;;;;3.63;0.30;;;-1.10;99.90;;;;;;5105058;28;20154;-80
2021/03/18 04:40:46;;;;;;;6.28;0.50;;;-1.10;99.90;;;;;;5105101;28;20024;-80
2021/03/18 04:43:12;;;;;;;5.55;0.70;;;-1.00;99.90;;;;;;5122084;28;20026;-80
2021/03/18 04:45:39;;;;;;;3.97;0.40;;;-1.00;99.90;;;;;;5121441;28;20046;-80
2021/03/18 04:48:06;;;;;;;4.65;0.40;;;-0.90;99.90;;;;;;5122022;28;20112;-79
2021/03/18 04:50:32;;;;;;;2.35;0.40;;;-0.70;99.90;;;;;;5116329;28;20074;-80
2021/03/18 04:52:58;;;;;;;8.57;0.47;;;-0.80;99.90;;;;;;5102860;28;20198;-80
2021/03/18 04:55:24;;;;;;;2.95;0.40;;;-0.90;99.90;;;;;;5101534;28;20372;-80
2021/03/18 04:57:58;;;;;;;2.42;0.40;;;-1.00;99.90;;;;;;5102884;28;20094;-80
2021/03/18 05:00:24;;;;;;;4.97;0.40;;;-0.80;99.90;;;;;;5101467;28;20020;-80
2021/03/18 05:02:50;;;;;;;2.10;0.40;;;-0.80;99.90;;;;;;5084497;28;20035;-80
2021/03/18 05:05:19;;;;;;;3.38;0.40;;;-0.70;99.90;;;;;;5102427;28;20028;-80
2021/03/18 05:07:47;;;;;;;4.18;0.80;;;-0.70;99.90;;;;;;5101598;28;20047;-80
2021/03/18 05:10:16;;;;;;;4.28;0.50;;;-0.60;99.90;;;;;;5101288;28;20039;-80
2021/03/18 05:12:42;;;;;;;3.30;0.50;;;-0.50;99.90;;;;;;5089910;28;20103;-80
2021/03/18 05:15:09;;;;;;;3.78;0.60;;;-0.60;99.90;;;;;;5104212;28;20438;-80
2021/03/18 05:17:36;;;;;;;2.15;0.40;;;-0.60;99.90;;;;;;5093637;28;20078;-81
2021/03/18 05:20:04;;;;;;;3.60;0.40;;;-0.70;99.90;;;;;;5100890;28;20055;-80
2021/03/18 05:22:30;;;;;;;3.75;0.60;;;-0.80;99.90;;;;;;5100547;28;20040;-80
2021/03/18 05:24:57;;;;;;;3.53;0.60;;;-0.80;99.90;;;;;;5083734;28;20028;-80
2021/03/18 05:27:22;;;;;;;4.90;0.90;;;-0.70;99.90;;;;;;5100357;28;20100;-81
2021/03/18 05:29:48;;;;;;;4.70;0.50;;;-0.50;99.90;;;;;;5100654;28;20031;-81
2021/03/18 05:32:14;;;;;;;4.20;0.40;;;-0.60;99.90;;;;;;5089331;28;20045;-81
2021/03/18 05:34:39;;;;;;;1.55;0.50;;;-0.60;99.90;;;;;;5081551;28;20025;-81
2021/03/18 05:37:05;;;;;;;3.47;0.50;;;-0.50;99.90;;;;;;5079948;28;20041;-81
2021/03/18 05:39:31;;;;;;;3.67;0.70;;;-0.50;99.90;;;;;;5063133;28;20032;-80
2021/03/18 05:41:57;;;;;;;4.70;0.70;;;-0.40;99.90;;;;;;5080037;28;20037;-81
2021/03/18 05:44:22;;;;;;;2.90;0.50;;;-0.30;99.90;;;;;;5052134;28;20033;-81
2021/03/18 05:46:48;;;;;;;3.85;0.50;;;-0.30;99.90;;;;;;5071023;28;20123;-82
2021/03/18 05:49:15;;;;;;;1.80;0.50;;;-0.30;99.90;;;;;;5058968;28;20044;-81
2021/03/18 05:51:44;;;;;;;1.60;0.50;;;-0.30;99.90;;;;;;5066080;28;20127;-81
2021/03/18 05:54:12;;;;;;;9.50;1.98;;;-0.20;99.90;;;;;;5088273;28;20060;-81
2021/03/18 05:56:39;;;;;;;5.22;0.40;;;-0.20;99.90;;;;;;5069658;28;20048;-81
2021/03/18 05:59:05;;;;;;;3.35;0.50;;;0.00;99.90;;;;;;5086392;28;20512;-81
2021/03/18 06:01:31;;;;;;;2.70;0.57;;;0.10;99.90;;;;;;5086796;28;20454;-81
2021/03/18 06:03:57;;;;;;;4.45;0.75;;;0.20;99.90;;;;;;5086552;28;20445;-81
2021/03/18 06:06:23;;;;;;;6.55;0.70;;;0.30;99.90;;;;;;5086351;28;20037;-81
2021/03/18 06:08:49;;;;;;;4.18;0.80;;;0.30;99.90;;;;;;5087886;28;20104;-81
2021/03/18 06:11:15;;;;;;;7.50;0.73;;;0.40;99.90;;;;;;5087276;28;20365;-81
2021/03/18 06:13:41;;;;;;;4.35;0.50;;;0.40;99.90;;;;;;5069225;28;20100;-81
2021/03/18 06:16:07;;;;;;;4.78;0.50;;;0.40;99.90;;;;;;5086938;28;20020;-81
2021/03/18 06:18:34;;;;;;;4.88;0.60;;;0.50;99.90;;;;;;5084494;28;20104;-81
2021/03/18 06:21:00;;;;;;;2.58;0.65;;;0.50;99.90;;;;;;5084618;28;20024;-81
2021/03/18 06:23:27;;;;;;;3.10;0.88;;;0.60;99.90;;;;;;5068149;28;20037;-81
2021/03/18 06:25:53;;;;;;;4.60;1.17;;;0.70;99.90;;;;;;5085506;28;20032;-80
2021/03/18 06:28:20;;;;;;;4.40;0.80;;;0.70;99.90;;;;;;5085509;28;20056;-81
2021/03/18 06:31:15;;;;;;;4.03;0.85;;;0.70;99.90;;;;;;5068850;28;20052;-80
2021/03/18 06:33:41;;;;;;;5.65;1.20;;;0.70;99.90;;;;;;5085448;28;20037;-81
2021/03/18 06:36:19;;;;;;;4.00;0.70;;;0.80;99.90;;;;;;5086540;28;20058;-81
2021/03/18 06:38:57;;;;;;;6.45;0.85;;;0.80;99.90;;;;;;5085584;28;20036;-81
2021/03/18 06:41:38;;;;;;;7.32;1.50;;;0.90;99.90;;;;;;5068175;28;20043;-81
2021/03/18 06:44:05;;;;;;;4.03;0.70;;;0.90;99.90;;;;;;5068699;28;20040;-81
2021/03/18 06:46:31;;;;;;;9.35;1.42;;;1.00;99.90;;;;;;5068180;28;20032;-81
2021/03/18 06:49:09;;;;;;;5.68;0.90;;;1.00;99.90;;;;;;5085222;28;20079;-81
2021/03/18 06:51:34;;;;;;;4.32;0.90;;;1.00;99.90;;;;;;5071069;28;20090;-81
2021/03/18 06:54:00;;;;;;;3.83;0.70;;;1.10;99.90;;;;;;5065072;28;20112;-81
2021/03/18 06:56:33;;;;;;;9.85;1.10;;;1.20;99.90;;;;;;5064062;28;20385;-81
2021/03/18 06:58:59;;;;;;;6.15;1.30;;;1.30;99.90;;;;;;5065141;28;20054;-81
2021/03/18 07:01:31;;;;;;;5.18;1.25;;;1.40;99.90;;;;;;5064434;28;20025;-81
2021/03/18 07:04:06;;;;;;;5.45;0.75;;;1.40;99.90;;;;;;5064786;28;20033;-81
2021/03/18 07:06:34;;;;;;;6.20;0.70;;;1.50;99.90;;;;;;5047875;28;20414;-81
2021/03/18 07:09:13;;;;;;;8.55;1.02;;;1.50;99.90;;;;;;5064796;28;20192;-81
2021/03/18 07:11:47;;;;;;;3.22;0.70;;;1.60;99.90;;;;;;5047987;28;20036;-82
2021/03/18 07:14:13;;;;;;;5.03;0.85;;;1.70;99.90;;;;;;5048102;28;20060;-83
2021/03/18 07:16:44;;;;;;;7.30;1.05;;;1.70;99.90;;;;;;5074790;28;20055;-81
2021/03/18 07:19:21;;;;;;;7.63;1.13;;;1.80;99.90;;;;;;5067892;28;20033;-81
2021/03/18 07:21:47;;;;;;;5.57;1.08;;;1.90;99.90;;;;;;5067769;28;20044;-82
2021/03/18 07:24:24;;;;;;;4.32;0.80;;;2.00;99.90;;;;;;5068036;28;20052;-81
2021/03/18 07:26:51;;;;;;;6.25;1.00;;;2.00;99.90;;;;;;5084461;28;20036;-81
2021/03/18 07:29:24;;;;;;;4.32;1.20;;;2.20;99.90;;;;;;5067757;28;20100;-81
2021/03/18 07:31:51;;;;;;;5.95;1.45;;;2.20;99.90;;;;;;5067464;28;20056;-82
2021/03/18 07:34:18;;;;;;;7.00;1.20;;;2.20;99.90;;;;;;5067622;28;20082;-82
2021/03/18 07:36:45;;;;;;;3.35;1.23;;;2.20;99.90;;;;;;5085483;28;20032;-81
2021/03/18 07:39:11;;;;;;;9.10;1.25;;;2.30;99.90;;;;;;5067653;28;20038;-82
2021/03/18 07:41:38;;;;;;;13.43;2.40;;;2.30;99.90;;;;;;5067702;28;20067;-81
2021/03/18 07:44:06;;;;;;;6.05;1.42;;;2.30;99.90;;;;;;5067714;28;20041;-81
2021/03/18 07:46:35;;;;;;;2.80;0.70;;;2.50;99.90;;;;;;5083861;28;20119;-81
2021/03/18 07:49:13;;;;;;;9.50;1.60;;;2.50;99.90;;;;;;5067328;28;20032;-82
2021/03/18 07:51:42;;;;;;;5.68;1.77;;;2.60;99.90;;;;;;5067852;28;20037;-82
2021/03/18 07:54:12;;;;;;;6.75;2.00;;;2.60;99.90;;;;;;5065611;28;20112;-82
2021/03/18 07:56:43;;;;;;;12.38;1.77;;;2.60;99.90;;;;;;5063956;28;20137;-83
2021/03/18 07:59:09;;;;;;;4.93;1.90;;;2.70;99.90;;;;;;5047510;28;20037;-82
2021/03/18 08:01:36;;;;;;;8.23;1.20;;;2.80;99.90;;;;;;5047173;28;20036;-82
2021/03/18 08:04:06;;;;;;;7.13;2.00;;;2.80;99.90;;;;;;5047149;28;20052;-82
2021/03/18 08:06:40;;;;;;;9.48;2.25;;;2.80;99.90;;;;;;5063412;28;20370;-82
2021/03/18 08:09:17;;;;;;;7.13;1.15;;;2.80;99.90;;;;;;5047257;28;20033;-82
2021/03/18 08:11:46;;;;;;;5.35;1.83;;;2.90;99.90;;;;;;5063505;28;20033;-82
2021/03/18 08:14:13;;;;;;;6.55;2.03;;;2.90;99.90;;;;;;5047196;28;20108;-82
2021/03/18 08:16:39;;;;;;;14.05;3.28;;;2.90;99.90;;;;;;5067752;28;20039;-81
2021/03/18 08:19:18;;;;;;;5.90;2.45;;;2.90;99.90;;;;;;5087249;28;20039;-81
2021/03/18 08:21:54;;;;;;;13.82;2.90;;;2.90;99.90;;;;;;5105224;28;20024;-82
2021/03/18 08:24:32;;;;;;;10.13;3.15;;;2.90;99.90;;;;;;5103896;28;20035;-82
2021/03/18 08:27:02;;;;;;;6.35;2.67;;;2.90;99.90;;;;;;5087269;28;20032;-81
2021/03/18 08:29:46;;;;;;;12.27;3.42;;;3.00;99.90;;;;;;5087294;28;20032;-81
2021/03/18 08:32:26;;;;;;;6.25;2.75;;;3.00;99.90;;;;;;5086738;28;20115;-81
2021/03/18 08:34:54;;;;;;;;;;;2.90;99.90;;;;;;5104133;28;20048;-81
2021/03/18 08:37:42;;;;;;;8.60;2.33;;;3.00;99.90;;;;;;5103814;28;19908;-81
2021/03/18 08:40:11;;;;;;;8.25;2.90;;;3.00;99.90;;;;;;5087149;28;20036;-81
2021/03/18 08:42:39;;;;;;;7.22;2.55;;;3.10;99.90;;;;;;5105171;28;20035;-82
2021/03/18 08:45:34;;;;;;;6.93;2.33;;;3.10;99.90;;;;;;5086874;28;20076;-81
2021/03/18 08:48:10;;;;;;;8.07;3.05;;;3.20;99.90;;;;;;5103922;28;20039;-82
2021/03/18 08:50:36;;;;;;;10.18;3.20;;;3.20;99.90;;;;;;5096300;28;20043;-81
2021/03/18 08:53:23;;;;;;;6.93;2.88;;;3.30;99.90;;;;;;5066811;28;20096;-81
2021/03/18 08:55:49;;;;;;;9.30;2.88;;;3.30;99.90;;;;;;5084947;28;20051;-81
2021/03/18 08:58:15;;;;;;;7.07;2.38;;;3.50;99.90;;;;;;5084872;28;20033;-82
2021/03/18 09:00:42;;;;;;;5.85;2.05;;;3.60;99.90;;;;;;5066830;28;20055;-81
2021/03/18 09:03:08;;;;;;;5.93;2.80;;;3.80;99.90;;;;;;5066718;28;20039;-82
2021/03/18 09:05:55;;;;;;;6.47;1.63;;;3.70;99.90;;;;;;5066518;28;20032;-81
2021/03/18 09:08:25;;;;;;;5.13;2.10;;;3.80;99.90;;;;;;4989682;28;20038;-82
2021/03/18 09:10:52;;;;;;;7.47;3.00;;;3.70;99.90;;;;;;4989784;28;20042;-82
2021/03/18 09:13:20;;;;;;;9.77;2.88;;;3.80;99.90;;;;;;5022036;28;20046;-82
2021/03/18 09:15:49;;;;;;;10.98;3.40;;;4.00;99.90;;;;;;5009025;28;20025;-81
2021/03/18 09:18:27;;;;;;;7.15;2.45;;;4.00;99.90;;;;;;5009863;28;20033;-82
2021/03/18 09:21:03;;;;;;;5.15;2.65;;;4.00;99.90;;;;;;5012672;28;20037;-82
2021/03/18 09:23:31;;;;;;;8.27;2.40;;;4.00;99.90;;;;;;5012965;28;20169;-82
2021/03/18 09:26:01;;;;;;;5.15;2.00;;;4.00;99.90;;;;;;5029025;28;20041;-82
2021/03/18 09:28:41;;;;;;;4.70;1.13;;;4.10;99.90;;;;;;5012686;28;20029;-82
2021/03/18 09:31:08;;;;;;;4.63;1.50;;;4.00;99.90;;;;;;5029060;28;20069;-82
2021/03/18 09:33:39;;;;;;;6.35;2.70;;;3.90;99.90;;;;;;5031285;28;20049;-82
2021/03/18 09:36:13;;;;;;;7.50;1.85;;;4.10;99.90;;;;;;5048512;28;20545;-82
2021/03/18 09:38:39;;;;;;;7.93;2.67;;;4.20;99.90;;;;;;5032219;28;20041;-82
2021/03/18 09:41:05;;;;;;;7.25;2.22;;;4.20;99.90;;;;;;5048611;28;20418;-82
2021/03/18 09:43:31;;;;;;;9.20;3.00;;;4.30;99.90;;;;;;5048485;28;20060;-81
2021/03/18 09:46:01;;;;;;;5.88;2.53;;;4.30;99.90;;;;;;5049558;28;20041;-82
2021/03/18 09:48:35;;;;;;;7.93;2.57;;;4.30;99.90;;;;;;5049801;28;20033;-81
2021/03/18 09:51:22;;;;;;;7.15;2.70;;;4.40;99.90;;;;;;5066186;28;20287;-82
2021/03/18 09:54:00;;;;;;;8.55;2.40;;;4.30;99.90;;;;;;5066266;28;20047;-82
2021/03/18 09:56:26;;;;;;;6.50;2.42;;;4.30;99.90;;;;;;5066525;28;20029;-82
2021/03/18 09:58:53;;;;;;;8.35;2.70;;;4.40;99.90;;;;;;5049762;28;20025;-82
2021/03/18 10:01:24;;;;;;;8.98;3.85;;;4.30;99.90;;;;;;5049569;28;20040;-82
2021/03/18 10:04:06;;;;;;;6.78;2.92;;;4.30;99.90;;;;;;5049512;28;20059;-81
2021/03/18 10:06:39;;;;;;;11.05;3.80;;;4.40;99.90;;;;;;5049211;28;20053;-82
2021/03/18 10:09:25;;;;;;;7.47;3.47;;;4.30;99.90;;;;;;5049319;28;20040;-82
2021/03/18 10:11:53;;;;;;;9.93;3.33;;;4.40;99.90;;;;;;5049240;28;20051;-82
2021/03/18 10:14:40;;;;;;;10.57;3.22;;;4.50;99.90;;;;;;5065913;28;20043;-82
2021/03/18 10:17:12;;;;;;;9.60;3.00;;;4.60;99.90;;;;;;5049543;28;20084;-82
2021/03/18 10:19:44;;;;;;;9.45;3.78;;;4.60;99.90;;;;;;5085834;28;20143;-82
2021/03/18 10:22:10;;;;;;;9.35;3.90;;;4.60;99.90;;;;;;5085609;28;20028;-84
2021/03/18 10:24:37;;;;;;;10.20;4.32;;;4.60;99.90;;;;;;5085613;28;20025;-82
2021/03/18 10:27:17;;;;;;;8.88;3.70;;;4.70;99.90;;;;;;5085832;28;20036;-82
2021/03/18 10:29:43;;;;;;;10.13;3.47;;;4.60;99.90;;;;;;5085653;28;20040;-82
2021/03/18 10:32:14;;;;;;;9.57;3.63;;;4.60;99.90;;;;;;5088974;28;20075;-82
2021/03/18 10:34:41;;;;;;;11.18;3.38;;;4.60;99.90;;;;;;5105784;28;20032;-82
2021/03/18 10:37:37;;;;;;;7.50;3.63;;;4.70;99.90;;;;;;5088759;28;20095;-81
2021/03/18 10:40:35;;;;;;;8.30;3.55;;;4.70;99.90;;;;;;5103951;28;20036;-82
2021/03/18 10:43:01;;;;;;;9.93;3.60;;;4.60;99.90;;;;;;5087977;28;20051;-82
2021/03/18 10:45:32;;;;;;;10.30;4.28;;;4.60;99.90;;;;;;5088772;28;20036;-82
2021/03/18 10:48:04;;;;;;;12.20;4.70;;;4.70;99.90;;;;;;5105704;28;20029;-82
2021/03/18 10:50:33;;;;;;;8.75;4.68;;;4.80;99.90;;;;;;5100376;28;20417;-82
2021/03/18 10:53:05;;;;;;;13.07;4.68;;;5.10;99.90;;;;;;5084917;28;20040;-82
2021/03/18 10:55:40;;;;;;;11.30;4.22;;;5.30;99.90;;;;;;5068467;28;20059;-82
2021/03/18 10:58:10;;;;;;;6.18;4.13;;;5.40;99.90;;;;;;5068567;28;20041;-82
2021/03/18 11:00:39;;;;;;;8.10;4.25;;;5.60;99.90;;;;;;5084849;28;20120;-82
2021/03/18 11:03:15;;;;;;;11.60;4.10;;;5.90;99.90;;;;;;5068252;28;20032;-82
2021/03/18 11:06:12;;;;;;;10.98;4.35;;;6.10;99.90;;;;;;5068170;28;20027;-83
2021/03/18 11:08:43;;;;;;;7.78;3.83;;;6.70;99.90;;;;;;4972156;28;20045;-82
2021/03/18 11:11:16;;;;;;;12.88;4.85;;;6.50;99.90;;;;;;5004441;28;20065;-82
2021/03/18 11:13:43;;;;;;;8.10;4.35;;;6.40;99.90;;;;;;4987950;28;20077;-82
2021/03/18 11:16:10;;;;;;;9.73;4.47;;;6.80;99.90;;;;;;5016416;28;20049;-83
2021/03/18 11:18:38;;;;;;;12.23;4.13;;;6.40;99.90;;;;;;5010963;28;20030;-82
2021/03/18 11:21:16;;;;;;;13.60;4.65;;;6.50;99.90;;;;;;5027312;28;20037;-83
2021/03/18 11:23:42;;;;;;;14.98;4.88;;;6.40;99.90;;;;;;5010935;28;20034;-82
2021/03/18 11:26:08;;;;;;;13.35;3.70;;;6.50;99.90;;;;;;5026840;28;20089;-83
2021/03/18 11:28:34;;;;;;;13.13;3.47;;;6.70;99.90;;;;;;5027203;28;20037;-83
2021/03/18 11:31:11;;;;;;;7.57;2.70;;;6.60;99.90;;;;;;5027069;28;20041;-83
2021/03/18 11:33:37;;;;;;;16.67;3.45;;;6.40;99.90;;;;;;5008235;28;20053;-82
2021/03/18 11:36:08;;;;;;;15.90;3.22;;;6.40;99.90;;;;;;5043232;28;20036;-82
2021/03/18 11:38:34;;;;;;;13.38;2.72;;;6.40;99.90;;;;;;5010535;28;20149;-83
2021/03/18 11:41:00;;;;;;;16.58;3.28;;;6.30;99.90;;;;;;5009930;28;20167;-83
2021/03/18 11:43:26;;;;;;;17.05;2.35;;;6.40;99.90;;;;;;5010573;28;20025;-82
2021/03/18 11:45:54;;;;;;;10.70;2.10;;;6.40;99.90;;;;;;5096629;28;20035;-83
2021/03/18 11:48:20;;;;;;;12.77;3.00;;;6.40;99.90;;;;;;5108203;28;20028;-81
2021/03/18 11:50:46;;;;;;;10.15;2.30;;;6.50;99.90;;;;;;5116452;28;20102;-83
2021/03/18 11:53:13;;;;;;;8.20;2.10;;;6.70;99.90;;;;;;5081329;28;20186;-82
2021/03/18 11:55:39;;;;;;;7.43;2.50;;;6.80;99.90;;;;;;5067209;28;20107;-83
2021/03/18 11:58:05;;;;;;;11.50;2.33;;;7.00;99.90;;;;;;5067533;28;20511;-82
2021/03/18 12:00:33;;;;;;;16.80;2.35;;;6.90;99.90;;;;;;5084120;28;20082;-82
2021/03/18 12:03:00;;;;;;;11.93;1.98;;;6.90;99.90;;;;;;5067374;28;20033;-83
2021/03/18 12:05:26;;;;;;;8.02;1.25;;;7.00;99.90;;;;;;5066983;28;20021;-82
2021/03/18 12:08:12;;;;;;;15.23;1.92;;;6.90;99.90;;;;;;5061005;28;20389;-83
2021/03/18 12:10:39;;;;;;;9.25;1.75;;;7.00;99.90;;;;;;5083869;28;20024;-84
2021/03/18 12:13:04;;;;;;;15.65;2.20;;;7.20;99.90;;;;;;5083756;28;20050;-83
2021/03/18 12:15:30;;;;;;;6.20;1.23;;;7.10;99.90;;;;;;5086825;28;20091;-82
2021/03/18 12:17:56;;;;;;;13.27;1.63;;;7.00;99.90;;;;;;5107388;28;20562;-82
2021/03/18 12:20:23;;;;;;;10.02;1.17;;;7.00;99.90;;;;;;5107789;28;20038;-82
2021/03/18 12:22:49;;;;;;;11.07;1.48;;;7.00;99.90;;;;;;5124007;28;20061;-82
2021/03/18 12:25:18;;;;;;;12.13;1.85;;;6.90;99.90;;;;;;5107220;28;20391;-82
2021/03/18 12:27:44;;;;;;;9.73;0.80;;;7.10;99.90;;;;;;5107305;28;20039;-82
2021/03/18 12:30:12;;;;;;;6.80;1.10;;;7.10;99.90;;;;;;5040223;28;20056;-83
2021/03/18 12:32:38;;;;;;;15.70;1.83;;;7.10;99.90;;;;;;5036176;28;20049;-83
2021/03/18 12:35:05;;;;;;;9.93;1.75;;;7.10;99.90;;;;;;5046141;28;20178;-83
2021/03/18 12:37:31;;;;;;;8.07;0.85;;;7.20;99.90;;;;;;5063265;28;20021;-82
2021/03/18 12:39:57;;;;;;;9.60;1.05;;;7.30;99.90;;;;;;5046779;28;20090;-83
2021/03/18 12:42:22;;;;;;;9.02;1.90;;;7.30;99.90;;;;;;5046882;28;20029;-83
2021/03/18 12:44:49;;;;;;;13.10;1.50;;;7.50;99.90;;;;;;5063571;28;20069;-84
2021/03/18 12:47:15;;;;;;;12.40;1.30;;;7.60;99.90;;;;;;5046900;28;20033;-83
2021/03/18 12:49:41;;;;;;;9.63;1.17;;;7.30;99.90;;;;;;5063614;28;20036;-84
2021/03/18 12:52:06;;;;;;;9.57;1.10;;;7.40;99.90;;;;;;5063464;28;20119;-83
2021/03/18 12:54:33;;;;;;;8.70;0.93;;;7.70;99.90;;;;;;5049728;28;20025;-82
2021/03/18 12:57:00;;;;;;;14.40;1.02;;;7.70;99.90;;;;;;5050786;28;20033;-83
2021/03/18 12:59:25;;;;;;;8.43;0.82;;;7.40;99.90;;;;;;5050859;28;20020;-83
2021/03/18 13:01:51;;;;;;;5.68;0.60;;;7.30;99.90;;;;;;5067111;28;20033;-83
2021/03/18 13:04:17;;;;;;;11.88;1.27;;;7.50;99.90;;;;;;5067338;28;20024;-83
2021/03/18 13:06:43;;;;;;;9.93;1.05;;;7.80;99.90;;;;;;5067055;28;20068;-83